createdAt,value
2017-12-11T00:01:50.306Z,77.76
2017-12-11T00:04:18.600Z,77.73
2017-12-11T00:06:46.863Z,77.80
2017-12-11T00:09:15.147Z,77.73
2017-12-11T00:11:43.415Z,77.65
2017-12-11T00:14:11.760Z,77.64
2017-12-11T00:16:40.026Z,77.66
2017-12-11T00:19:08.326Z,77.59
2017-12-11T00:21:36.748Z,77.59
2017-12-11T00:24:05.103Z,77.55
2017-12-11T00:26:33.372Z,77.46
2017-12-11T00:29:01.696Z,77.52
2017-12-11T00:31:29.960Z,77.32
2017-12-11T00:33:58.269Z,77.57
2017-12-11T00:36:26.538Z,77.86
2017-12-11T00:38:55.124Z,77.95
2017-12-11T00:41:23.391Z,77.85
2017-12-11T00:43:51.679Z,77.77
2017-12-11T00:46:19.960Z,77.83
2017-12-11T00:48:48.230Z,78.04
2017-12-11T00:51:16.532Z,78.28
2017-12-11T00:53:44.784Z,78.12
2017-12-11T00:56:13.086Z,78.00
2017-12-11T00:58:41.364Z,77.88
2017-12-11T01:01:09.642Z,78.13
2017-12-11T01:03:37.911Z,78.23
2017-12-11T01:06:06.190Z,77.79
2017-12-11T01:08:34.447Z,77.50
2017-12-11T01:11:02.752Z,77.51
2017-12-11T01:13:31.060Z,77.31
2017-12-11T01:15:59.330Z,77.20
2017-12-11T01:18:27.608Z,77.32
2017-12-11T01:20:56.332Z,77.18
2017-12-11T01:23:25.292Z,77.28
2017-12-11T01:25:53.536Z,77.28
2017-12-11T01:28:21.842Z,77.23
2017-12-11T01:30:50.120Z,77.06
2017-12-11T01:33:18.404Z,77.26
2017-12-11T01:35:46.685Z,77.25
2017-12-11T01:38:14.947Z,78.07
2017-12-11T01:40:43.242Z,78.20
2017-12-11T01:43:11.495Z,79.18
2017-12-11T01:45:40.078Z,79.79
2017-12-11T01:48:08.348Z,80.09
2017-12-11T01:50:36.599Z,80.67
2017-12-11T01:53:05.067Z,80.88
2017-12-11T01:55:33.376Z,81.20
2017-12-11T01:58:01.655Z,81.19
2017-12-11T02:00:29.951Z,81.31
2017-12-11T02:02:58.195Z,81.36
2017-12-11T02:05:26.479Z,81.74
2017-12-11T02:07:54.760Z,81.57
2017-12-11T02:10:23.015Z,81.58
2017-12-11T02:12:51.311Z,81.43
2017-12-11T02:15:19.558Z,81.44
2017-12-11T02:17:48.009Z,81.82
2017-12-11T02:20:16.279Z,81.79
2017-12-11T02:22:44.590Z,81.86
2017-12-11T02:25:14.305Z,81.98
2017-12-11T02:27:43.395Z,81.82
2017-12-11T02:30:11.704Z,81.64
2017-12-11T02:32:39.965Z,81.54
2017-12-11T02:35:08.252Z,81.69
2017-12-11T02:37:36.495Z,82.10
2017-12-11T02:40:05.289Z,82.21
2017-12-11T02:42:33.546Z,82.60
2017-12-11T02:45:01.844Z,82.91
2017-12-11T02:47:30.096Z,82.63
2017-12-11T02:49:58.601Z,82.95
2017-12-11T02:52:27.012Z,82.60
2017-12-11T02:54:55.274Z,82.61
2017-12-11T02:57:23.552Z,82.73
2017-12-11T02:59:51.832Z,82.54
2017-12-11T03:02:20.145Z,82.29
2017-12-11T03:04:48.421Z,82.48
2017-12-11T03:07:16.740Z,82.60
2017-12-11T03:09:45.007Z,82.53
2017-12-11T03:12:13.318Z,82.28
2017-12-11T03:14:41.570Z,82.19
2017-12-11T03:17:09.839Z,82.51
2017-12-11T03:19:38.148Z,82.71
2017-12-11T03:22:06.428Z,82.53
2017-12-11T03:24:34.716Z,82.39
2017-12-11T03:27:02.964Z,82.13
2017-12-11T03:29:31.264Z,82.03
2017-12-11T03:31:59.563Z,81.95
2017-12-11T03:34:27.849Z,82.02
2017-12-11T03:36:56.114Z,82.08
2017-12-11T03:39:24.400Z,82.30
2017-12-11T03:41:52.697Z,82.44
2017-12-11T03:44:20.952Z,82.38
2017-12-11T03:46:49.244Z,82.26
2017-12-11T03:49:17.509Z,82.25
2017-12-11T03:51:45.843Z,82.22
2017-12-11T03:54:14.092Z,82.22
2017-12-11T03:56:42.377Z,82.44
2017-12-11T03:59:10.636Z,82.47
2017-12-11T04:01:39.519Z,82.45
2017-12-11T04:04:07.775Z,82.29
2017-12-11T04:06:36.071Z,82.23
2017-12-11T04:09:04.994Z,82.06
2017-12-11T04:11:33.319Z,82.03
2017-12-11T04:14:01.635Z,82.24
2017-12-11T04:16:29.895Z,82.54
2017-12-11T04:18:58.188Z,82.67
2017-12-11T04:21:26.439Z,82.62
2017-12-11T04:23:54.724Z,82.58
2017-12-11T04:26:22.997Z,82.55
2017-12-11T04:28:51.273Z,82.52
2017-12-11T04:31:19.528Z,82.45
2017-12-11T04:33:47.792Z,82.71
2017-12-11T04:36:16.062Z,82.66
2017-12-11T04:38:44.354Z,82.82
2017-12-11T04:41:12.654Z,82.86
2017-12-11T04:43:40.929Z,82.71
2017-12-11T04:46:09.211Z,82.81
2017-12-11T04:48:37.487Z,83.00
2017-12-11T04:51:05.756Z,82.94
2017-12-11T04:53:34.018Z,82.86
2017-12-11T04:56:02.311Z,82.85
2017-12-11T04:58:30.871Z,83.02
2017-12-11T05:00:59.757Z,83.06
2017-12-11T05:03:28.032Z,83.19
2017-12-11T05:05:56.306Z,83.00
2017-12-11T05:08:24.578Z,83.10
2017-12-11T05:10:52.864Z,83.39
2017-12-11T05:13:21.143Z,83.28
2017-12-11T05:15:49.447Z,83.23
2017-12-11T05:18:17.721Z,83.27
2017-12-11T05:20:45.974Z,83.40
2017-12-11T05:23:14.263Z,83.56
2017-12-11T05:25:42.550Z,83.49
2017-12-11T05:28:10.857Z,83.59
2017-12-11T05:30:39.165Z,83.60
2017-12-11T05:33:07.383Z,83.55
2017-12-11T05:35:35.665Z,83.34
2017-12-11T05:38:03.946Z,83.49
2017-12-11T05:40:32.201Z,83.70
2017-12-11T05:43:00.477Z,83.75
2017-12-11T05:45:28.771Z,83.78
2017-12-11T05:47:57.035Z,83.85
2017-12-11T05:50:25.357Z,83.63
2017-12-11T05:52:53.628Z,83.68
2017-12-11T05:55:21.980Z,83.65
2017-12-11T05:57:50.239Z,83.66
2017-12-11T06:00:18.585Z,84.08
2017-12-11T06:02:47.170Z,84.08
2017-12-11T06:05:15.471Z,84.15
2017-12-11T06:07:43.747Z,84.16
2017-12-11T06:10:12.023Z,84.14
2017-12-11T06:12:40.299Z,84.30
2017-12-11T06:15:08.577Z,84.17
2017-12-11T06:17:36.918Z,84.10
2017-12-11T06:20:05.141Z,84.13
2017-12-11T06:22:33.439Z,84.13
2017-12-11T06:25:01.752Z,84.05
2017-12-11T06:27:30.042Z,84.08
2017-12-11T06:29:58.339Z,84.01
2017-12-11T06:32:26.624Z,83.89
2017-12-11T06:34:54.900Z,83.81
2017-12-11T06:37:23.167Z,83.70
2017-12-11T06:39:51.476Z,84.14
2017-12-11T06:42:19.782Z,84.24
2017-12-11T06:44:48.107Z,84.38
2017-12-11T06:47:16.373Z,84.50
2017-12-11T06:49:44.657Z,84.72
2017-12-11T06:52:12.959Z,85.13
2017-12-11T06:54:41.227Z,85.29
2017-12-11T06:57:09.495Z,85.36
2017-12-11T06:59:37.787Z,85.55
2017-12-11T07:02:06.063Z,85.30
2017-12-11T07:04:34.473Z,85.44
2017-12-11T07:07:02.759Z,85.53
2017-12-11T07:09:32.012Z,85.64
2017-12-11T07:12:00.326Z,85.36
2017-12-11T07:14:28.556Z,85.20
2017-12-11T07:16:56.863Z,85.38
2017-12-11T07:19:25.113Z,85.42
2017-12-11T07:21:53.404Z,85.33
2017-12-11T07:24:21.666Z,85.49
2017-12-11T07:26:49.948Z,85.50
2017-12-11T07:29:18.272Z,85.72
2017-12-11T07:31:46.521Z,85.76
2017-12-11T07:34:14.842Z,85.82
2017-12-11T07:36:43.082Z,85.95
2017-12-11T07:39:11.517Z,85.95
2017-12-11T07:41:40.610Z,86.60
2017-12-11T07:44:08.918Z,86.53
2017-12-11T07:46:37.202Z,86.39
2017-12-11T07:49:05.487Z,86.26
2017-12-11T07:51:34.118Z,86.37
2017-12-11T07:54:02.640Z,86.48
2017-12-11T07:56:30.862Z,86.69
2017-12-11T07:58:59.166Z,86.80
2017-12-11T08:01:27.417Z,86.62
2017-12-11T08:03:55.696Z,86.35
2017-12-11T08:06:23.983Z,86.26
2017-12-11T08:08:52.254Z,86.19
2017-12-11T08:11:20.529Z,86.42
2017-12-11T08:13:48.799Z,86.59
2017-12-11T08:16:17.120Z,86.80
2017-12-11T08:18:45.381Z,86.87
2017-12-11T08:21:14.064Z,86.73
2017-12-11T08:23:42.317Z,86.63
2017-12-11T08:26:10.594Z,86.44
2017-12-11T08:28:38.981Z,86.32
2017-12-11T08:31:07.315Z,86.23
2017-12-11T08:33:35.608Z,85.81
2017-12-11T08:36:04.273Z,85.64
2017-12-11T08:38:32.548Z,85.92
2017-12-11T08:41:00.834Z,85.69
2017-12-11T08:43:30.077Z,85.58
2017-12-11T08:45:58.302Z,85.56
2017-12-11T08:48:26.612Z,85.53
2017-12-11T08:50:54.902Z,85.59
2017-12-11T08:53:23.165Z,85.46
2017-12-11T08:55:51.440Z,85.61
2017-12-11T08:58:19.731Z,85.67
2017-12-11T09:00:48.003Z,85.65
2017-12-11T09:03:16.275Z,85.68
2017-12-11T09:05:44.757Z,85.30
2017-12-11T09:08:13.015Z,85.15
2017-12-11T09:10:41.410Z,85.01
2017-12-11T09:13:09.796Z,85.16
2017-12-11T09:15:38.061Z,85.08
2017-12-11T09:18:06.343Z,84.93
2017-12-11T09:20:35.083Z,85.20
2017-12-11T09:23:03.403Z,85.28
2017-12-11T09:25:31.678Z,85.16
2017-12-11T09:27:59.966Z,85.18
2017-12-11T09:30:28.275Z,85.37
2017-12-11T09:32:56.608Z,85.32
2017-12-11T09:35:24.997Z,85.27
2017-12-11T09:37:53.276Z,85.38
2017-12-11T09:40:21.663Z,85.46
2017-12-11T09:42:50.187Z,85.33
2017-12-11T09:45:18.502Z,85.41
2017-12-11T09:47:46.843Z,85.44
2017-12-11T09:50:15.158Z,85.31
2017-12-11T09:52:43.449Z,85.25
2017-12-11T09:55:11.715Z,85.51
2017-12-11T09:57:39.987Z,85.39
2017-12-11T10:00:08.335Z,85.25
2017-12-11T10:02:36.710Z,85.26
2017-12-11T10:05:05.024Z,85.22
2017-12-11T10:07:33.303Z,85.32
2017-12-11T10:10:01.579Z,85.29
2017-12-11T10:12:29.908Z,85.31
2017-12-11T10:14:58.682Z,85.49
2017-12-11T10:17:26.920Z,85.51
2017-12-11T10:19:55.201Z,85.65
2017-12-11T10:22:23.466Z,85.71
2017-12-11T10:24:51.827Z,85.64
2017-12-11T10:27:20.127Z,85.54
2017-12-11T10:29:48.478Z,85.55
2017-12-11T10:32:16.759Z,85.58
2017-12-11T10:34:45.039Z,85.29
2017-12-11T10:37:13.315Z,85.20
2017-12-11T10:39:41.588Z,85.08
2017-12-11T10:42:09.864Z,84.88
2017-12-11T10:44:38.159Z,84.93
2017-12-11T10:47:06.460Z,84.91
2017-12-11T10:49:34.728Z,84.77
2017-12-11T10:52:03.020Z,84.99
2017-12-11T10:54:31.320Z,85.21
2017-12-11T10:56:59.632Z,85.52
2017-12-11T10:59:27.924Z,85.19
2017-12-11T11:01:56.188Z,85.08
2017-12-11T11:04:24.494Z,84.99
2017-12-11T11:06:52.764Z,85.17
2017-12-11T11:09:21.070Z,85.03
2017-12-11T11:11:49.374Z,85.00
2017-12-11T11:14:18.032Z,85.22
2017-12-11T11:16:46.327Z,84.20
2017-12-11T11:19:14.664Z,83.81
2017-12-11T11:21:43.818Z,84.28
2017-12-11T11:24:12.597Z,83.76
2017-12-11T11:26:40.877Z,83.99
2017-12-11T11:29:10.028Z,84.26
2017-12-11T11:31:38.350Z,84.46
2017-12-11T11:34:06.624Z,84.45
2017-12-11T11:36:34.935Z,84.71
2017-12-11T11:39:03.217Z,84.57
2017-12-11T11:41:31.844Z,84.54
2017-12-11T11:44:00.119Z,84.98
2017-12-11T11:46:28.442Z,84.32
2017-12-11T11:48:56.744Z,84.68
2017-12-11T11:51:25.994Z,84.58
2017-12-11T11:53:54.373Z,84.89
2017-12-11T11:56:22.695Z,84.64
2017-12-11T11:58:51.001Z,84.58
2017-12-11T12:01:19.315Z,84.41
2017-12-11T12:03:47.678Z,84.24
2017-12-11T12:06:16.792Z,84.02
2017-12-11T12:08:45.214Z,84.40
2017-12-11T12:11:13.598Z,84.49
2017-12-11T12:13:41.959Z,84.77
2017-12-11T12:16:10.264Z,84.70
2017-12-11T12:18:38.711Z,84.61
2017-12-11T12:21:07.008Z,84.28
2017-12-11T12:23:35.298Z,83.75
2017-12-11T12:26:04.211Z,81.90
2017-12-11T12:28:32.527Z,80.41
2017-12-11T12:31:00.815Z,81.08
2017-12-11T12:33:29.107Z,80.81
2017-12-11T12:35:57.499Z,79.64
2017-12-11T12:38:25.774Z,78.75
2017-12-11T12:40:54.152Z,78.20
2017-12-11T12:43:22.430Z,78.34
2017-12-11T12:45:50.736Z,76.61
2017-12-11T12:48:19.025Z,76.45
2017-12-11T12:50:47.343Z,77.69
2017-12-11T12:53:15.629Z,77.73
2017-12-11T12:55:43.972Z,77.87
2017-12-11T12:58:12.235Z,78.23
2017-12-11T13:00:40.595Z,77.98
2017-12-11T13:03:09.251Z,78.32
2017-12-11T13:05:37.526Z,78.05
2017-12-11T13:08:05.823Z,78.53
2017-12-11T13:10:34.330Z,77.97
2017-12-11T13:13:02.730Z,77.83
2017-12-11T13:15:31.008Z,76.62
2017-12-11T13:17:59.376Z,76.27
2017-12-11T13:20:27.665Z,76.57
2017-12-11T13:22:55.966Z,75.26
2017-12-11T13:25:24.323Z,73.28
2017-12-11T13:27:52.666Z,72.27
2017-12-11T13:30:20.949Z,71.81
2017-12-11T13:32:49.868Z,72.85
2017-12-11T13:35:18.083Z,73.88
2017-12-11T13:37:46.380Z,72.43
2017-12-11T13:40:14.721Z,73.68
2017-12-11T13:42:42.993Z,72.63
2017-12-11T13:45:11.289Z,74.30
2017-12-11T13:47:39.571Z,74.83
2017-12-11T13:50:08.250Z,75.46
2017-12-11T13:52:36.448Z,75.58
2017-12-11T13:55:05.118Z,75.19
2017-12-11T13:57:33.402Z,75.74
2017-12-11T14:00:01.683Z,75.89
2017-12-11T14:02:29.999Z,75.04
2017-12-11T14:04:58.317Z,75.81
2017-12-11T14:07:26.603Z,75.53
2017-12-11T14:09:55.687Z,75.15
2017-12-11T14:12:24.080Z,75.69
2017-12-11T14:14:52.362Z,75.91
2017-12-11T14:17:20.676Z,76.28
2017-12-11T14:19:49.549Z,75.83
2017-12-11T14:22:18.995Z,76.21
2017-12-11T14:24:47.331Z,76.06
2017-12-11T14:27:15.609Z,75.92
2017-12-11T14:29:43.925Z,75.82
2017-12-11T14:32:12.397Z,74.86
2017-12-11T14:34:40.684Z,74.54
2017-12-11T14:37:09.145Z,74.20
2017-12-11T14:39:38.056Z,74.19
2017-12-11T14:42:06.379Z,74.17
2017-12-11T14:44:35.575Z,74.71
2017-12-11T14:47:04.815Z,75.06
2017-12-11T14:49:34.010Z,74.47
2017-12-11T14:52:02.301Z,74.54
2017-12-11T14:54:30.754Z,74.32
2017-12-11T14:56:59.011Z,74.64
2017-12-11T14:59:27.334Z,73.99
2017-12-11T15:01:55.659Z,74.42
2017-12-11T15:04:24.134Z,74.09
2017-12-11T15:06:53.018Z,73.67
2017-12-11T15:09:22.064Z,73.70
2017-12-11T15:11:50.424Z,73.35
2017-12-11T15:14:18.763Z,73.84
2017-12-11T15:16:47.025Z,73.67
2017-12-11T15:19:15.307Z,73.81
2017-12-11T15:21:43.590Z,73.43
2017-12-11T15:24:11.857Z,73.08
2017-12-11T15:26:40.137Z,72.74
2017-12-11T15:31:43.022Z,72.76
2017-12-11T15:34:12.673Z,72.87
2017-12-11T15:36:40.967Z,73.42
2017-12-11T15:39:10.125Z,72.66
2017-12-11T15:41:40.129Z,72.54
2017-12-11T15:44:11.297Z,73.41
2017-12-11T15:46:39.603Z,73.22
2017-12-11T15:49:08.037Z,72.80
2017-12-11T15:51:36.347Z,73.22
2017-12-11T15:54:04.704Z,73.41
2017-12-11T15:56:33.082Z,73.47
2017-12-11T15:59:01.355Z,73.19
2017-12-11T16:01:29.727Z,73.50
2017-12-11T16:03:57.998Z,73.97
2017-12-11T16:06:26.272Z,73.96
2017-12-11T16:08:54.687Z,74.33
2017-12-11T16:11:22.964Z,73.26
2017-12-11T16:13:51.409Z,73.41
2017-12-11T16:16:20.660Z,74.10
2017-12-11T16:18:49.023Z,73.95
2017-12-11T16:21:17.957Z,73.55
2017-12-11T16:23:46.278Z,73.84
2017-12-11T16:26:14.550Z,74.32
2017-12-11T16:28:42.844Z,74.77
2017-12-11T16:31:11.567Z,75.20
2017-12-11T16:33:39.971Z,74.41
2017-12-11T16:36:08.263Z,74.66
2017-12-11T16:38:37.554Z,75.57
2017-12-11T16:41:07.158Z,75.90
2017-12-11T16:43:35.600Z,75.91
2017-12-11T16:46:03.958Z,75.86
2017-12-11T16:48:32.273Z,75.93
2017-12-11T16:51:00.564Z,76.06
2017-12-11T16:53:28.849Z,76.31
2017-12-11T16:55:57.187Z,75.56
2017-12-11T16:58:25.601Z,75.60
2017-12-11T17:00:53.977Z,76.15
2017-12-11T17:03:22.284Z,76.01
2017-12-11T17:05:50.589Z,76.14
2017-12-11T17:08:18.875Z,76.36
2017-12-11T17:10:47.192Z,75.84
2017-12-11T17:13:15.465Z,76.00
2017-12-11T17:15:43.757Z,75.97
2017-12-11T17:18:12.090Z,75.66
2017-12-11T17:20:40.339Z,76.05
2017-12-11T17:23:09.172Z,76.18
2017-12-11T17:25:38.405Z,76.52
2017-12-11T17:28:06.700Z,76.66
2017-12-11T17:30:35.850Z,76.79
2017-12-11T17:33:04.128Z,76.69
2017-12-11T17:35:32.494Z,76.65
2017-12-11T17:38:00.766Z,76.82
2017-12-11T17:40:29.041Z,76.82
2017-12-11T17:42:57.318Z,76.90
2017-12-11T17:45:25.612Z,76.76
2017-12-11T17:47:53.904Z,76.58
2017-12-11T17:50:22.452Z,76.53
2017-12-11T17:52:50.724Z,76.51
2017-12-11T17:55:19.060Z,76.39
2017-12-11T17:57:47.380Z,75.98
2017-12-11T18:00:15.667Z,76.20
2017-12-11T18:02:44.207Z,75.74
2017-12-11T18:05:12.525Z,75.89
2017-12-11T18:07:40.801Z,76.07
2017-12-11T18:10:10.056Z,76.14
2017-12-11T18:12:39.209Z,76.37
2017-12-11T18:15:07.490Z,75.65
2017-12-11T18:17:35.840Z,75.29
2017-12-11T18:20:04.177Z,75.37
2017-12-11T18:22:32.551Z,75.79
2017-12-11T18:25:01.256Z,75.03
2017-12-11T18:27:29.611Z,75.47
2017-12-11T18:29:57.860Z,75.45
2017-12-11T18:32:26.766Z,75.37
2017-12-11T18:34:55.054Z,75.74
2017-12-11T18:37:27.422Z,75.18
2017-12-11T18:39:56.028Z,75.58
2017-12-11T18:42:25.116Z,75.82
2017-12-11T18:44:53.569Z,75.39
2017-12-11T18:47:21.838Z,75.90
2017-12-11T18:49:51.945Z,75.99
2017-12-11T18:52:21.468Z,75.55
2017-12-11T18:54:50.462Z,75.67
2017-12-11T18:57:19.689Z,75.56
2017-12-11T18:59:48.149Z,75.53
2017-12-11T19:02:17.439Z,75.12
2017-12-11T19:04:45.734Z,75.50
2017-12-11T19:07:14.061Z,75.85
2017-12-11T19:09:42.461Z,75.84
2017-12-11T19:12:10.728Z,75.61
2017-12-11T19:14:39.109Z,75.82
2017-12-11T19:17:08.306Z,76.02
2017-12-11T19:19:37.709Z,75.53
2017-12-11T19:22:05.993Z,75.75
2017-12-11T19:24:34.276Z,75.96
2017-12-11T19:27:04.284Z,75.81
2017-12-11T19:29:34.193Z,75.44
2017-12-11T19:32:02.468Z,74.92
2017-12-11T19:34:30.737Z,74.95
2017-12-11T19:36:59.029Z,75.48
2017-12-11T19:39:27.298Z,75.21
2017-12-11T19:41:57.619Z,75.05
2017-12-11T19:44:25.880Z,75.20
2017-12-11T19:46:54.492Z,75.13
2017-12-11T19:49:22.840Z,74.52
2017-12-11T19:51:51.137Z,74.81
2017-12-11T19:54:19.416Z,74.81
2017-12-11T19:56:47.693Z,74.72
2017-12-11T19:59:15.978Z,74.60
2017-12-11T20:01:44.275Z,73.90
2017-12-11T20:04:12.615Z,74.38
2017-12-11T20:06:41.660Z,74.24
2017-12-11T20:09:11.274Z,74.45
2017-12-11T20:11:40.083Z,74.83
2017-12-11T20:14:10.040Z,74.42
2017-12-11T20:16:38.349Z,74.05
2017-12-11T20:19:08.037Z,74.32
2017-12-11T20:21:36.285Z,74.11
2017-12-11T20:24:04.728Z,74.00
2017-12-11T20:26:32.952Z,73.88
2017-12-11T20:29:01.240Z,74.05
2017-12-11T20:31:32.784Z,73.95
2017-12-11T20:34:01.073Z,73.62
2017-12-11T20:36:29.332Z,73.79
2017-12-11T20:38:57.589Z,74.20
2017-12-11T20:41:25.900Z,74.01
2017-12-11T20:43:54.149Z,75.13
2017-12-11T20:46:22.425Z,75.12
2017-12-11T20:48:51.511Z,76.27
2017-12-11T20:51:19.796Z,76.29
2017-12-11T20:53:48.076Z,77.16
2017-12-11T20:56:16.357Z,78.65
2017-12-11T20:58:44.648Z,79.78
2017-12-11T21:01:12.914Z,80.29
2017-12-11T21:03:41.194Z,79.93
2017-12-11T21:06:10.195Z,79.66
2017-12-11T21:08:38.455Z,78.77
2017-12-11T21:11:06.848Z,78.04
2017-12-11T21:13:35.104Z,78.00
2017-12-11T21:16:03.487Z,78.01
2017-12-11T21:18:31.794Z,77.74
2017-12-11T21:21:00.113Z,78.62
2017-12-11T21:23:28.421Z,78.25
2017-12-11T21:25:56.715Z,78.42
2017-12-11T21:28:25.136Z,78.54
2017-12-11T21:30:53.692Z,78.62
2017-12-11T21:33:22.039Z,78.73
2017-12-11T21:35:50.473Z,78.66
2017-12-11T21:38:18.793Z,78.45
2017-12-11T21:40:47.085Z,78.43
2017-12-11T21:43:15.354Z,78.85
2017-12-11T21:45:44.334Z,79.19
2017-12-11T21:48:12.637Z,79.36
2017-12-11T21:50:40.992Z,79.00
2017-12-11T21:53:09.231Z,79.03
2017-12-11T21:55:37.534Z,79.07
2017-12-11T21:58:05.815Z,79.03
2017-12-11T22:00:34.092Z,79.44
2017-12-11T22:03:02.532Z,79.29
2017-12-11T22:05:30.855Z,79.71
2017-12-11T22:07:59.663Z,79.65
2017-12-11T22:10:27.934Z,78.50
2017-12-11T22:12:56.211Z,78.14
2017-12-11T22:15:24.533Z,78.78
2017-12-11T22:17:52.792Z,77.94
2017-12-11T22:20:21.065Z,77.14
2017-12-11T22:22:49.348Z,76.39
2017-12-11T22:25:17.670Z,74.37
2017-12-11T22:27:45.946Z,71.83
2017-12-11T22:32:41.623Z,70.87
2017-12-11T22:37:37.307Z,71.18
2017-12-11T22:40:05.573Z,70.12
2017-12-11T22:42:33.864Z,70.32
2017-12-11T22:45:02.158Z,70.11
2017-12-11T22:47:30.626Z,69.54
2017-12-11T22:49:59.263Z,69.30
2017-12-11T22:52:28.408Z,68.06
2017-12-11T22:54:56.691Z,68.62
2017-12-11T22:57:24.967Z,68.68
2017-12-11T22:59:53.299Z,68.76
2017-12-11T23:02:22.223Z,68.80
2017-12-11T23:04:50.526Z,68.92
2017-12-11T23:07:18.793Z,67.98
2017-12-11T23:09:47.887Z,68.56
2017-12-11T23:12:16.152Z,68.94
2017-12-11T23:14:44.746Z,68.64
2017-12-11T23:17:13.475Z,68.87
2017-12-11T23:19:43.144Z,68.37
2017-12-11T23:22:11.452Z,68.71
2017-12-11T23:24:39.695Z,68.44
2017-12-11T23:27:07.951Z,68.55
2017-12-11T23:29:36.227Z,68.67
2017-12-11T23:32:04.816Z,68.45
2017-12-11T23:34:33.107Z,68.10
2017-12-11T23:37:01.423Z,68.38
2017-12-11T23:39:30.356Z,68.30
2017-12-11T23:41:58.639Z,68.10
2017-12-11T23:44:26.908Z,67.99
2017-12-11T23:46:55.186Z,68.44
2017-12-11T23:49:23.466Z,68.52
2017-12-11T23:51:52.165Z,69.18
2017-12-11T23:54:32.116Z,70.22
2017-12-11T23:57:01.114Z,70.84
2017-12-11T23:59:29.385Z,72.18
